createdAt,value
2022-10-04T00:04:34.638Z,101241.19
2022-10-04T00:09:44.390Z,101244.47
2022-10-04T00:14:50.850Z,101243.09
2022-10-04T00:19:55.470Z,101245.84
2022-10-04T00:25:22.640Z,101241.72
2022-10-04T00:30:27.068Z,101234.63
2022-10-04T00:35:49.437Z,101237.63
2022-10-04T00:40:57.084Z,101228.03
2022-10-04T00:46:06.083Z,101229.16
2022-10-04T00:51:16.286Z,101233.22
2022-10-04T00:56:25.303Z,101236.53
2022-10-04T01:01:30.344Z,101231.59
2022-10-04T01:06:34.937Z,101236.25
2022-10-04T01:11:42.436Z,101239.81
2022-10-04T01:16:47.496Z,101240.06
2022-10-04T01:22:04.124Z,101242.28
2022-10-04T01:27:35.629Z,101235.16
2022-10-04T01:32:40.251Z,101226.13
2022-10-04T01:37:43.009Z,101226.13
2022-10-04T01:42:51.455Z,101221.16
2022-10-04T01:47:58.020Z,101232.13
2022-10-04T01:53:09.446Z,101232.31
2022-10-04T01:58:18.931Z,101221.19
2022-10-04T02:03:29.235Z,101214.50
2022-10-04T02:08:34.799Z,101215.72
2022-10-04T02:13:41.906Z,101201.47
2022-10-04T02:18:46.560Z,101197.81
2022-10-04T02:23:49.793Z,101205.00
2022-10-04T02:28:53.853Z,101194.66
2022-10-04T02:33:59.357Z,101187.16
2022-10-04T02:39:05.700Z,101196.59
2022-10-04T02:44:17.624Z,101188.88
2022-10-04T02:49:28.659Z,101196.22
2022-10-04T02:54:39.287Z,101179.00
2022-10-04T02:59:43.217Z,101168.56
2022-10-04T03:04:45.862Z,101178.78
2022-10-04T03:09:49.127Z,101182.53
2022-10-04T03:14:54.448Z,101173.53
2022-10-04T03:19:57.936Z,101172.25
2022-10-04T03:25:01.564Z,101174.91
2022-10-04T03:30:06.725Z,101166.72
2022-10-04T03:35:29.528Z,101172.03
2022-10-04T03:40:34.139Z,101177.03
2022-10-04T03:45:38.077Z,101169.88
2022-10-04T03:50:47.902Z,101171.72
2022-10-04T03:55:50.658Z,101146.66
2022-10-04T04:01:07.068Z,101142.53
2022-10-04T04:06:16.278Z,101155.72
2022-10-04T04:11:23.475Z,101168.63
2022-10-04T04:16:28.377Z,101159.31
2022-10-04T04:21:32.838Z,101169.00
2022-10-04T04:26:40.269Z,101163.34
2022-10-04T04:31:52.412Z,101162.31
2022-10-04T04:37:00.112Z,101161.13
2022-10-04T04:42:07.101Z,101153.81
2022-10-04T04:47:19.293Z,101157.47
2022-10-04T04:52:27.630Z,101153.97
2022-10-04T04:57:30.480Z,101148.22
2022-10-04T05:02:36.596Z,101143.16
2022-10-04T05:07:39.297Z,101150.50
2022-10-04T05:12:41.994Z,101146.69
2022-10-04T05:17:46.199Z,101140.72
2022-10-04T05:22:51.398Z,101159.84
2022-10-04T05:27:55.598Z,101140.22
2022-10-04T05:33:02.977Z,101139.72
2022-10-04T05:38:10.550Z,101138.72
2022-10-04T05:43:27.360Z,101146.66
2022-10-04T05:48:31.627Z,101146.25
2022-10-04T05:53:35.651Z,101153.63
2022-10-04T05:58:53.752Z,101156.50
2022-10-04T06:04:12.766Z,101153.22
2022-10-04T06:09:31.552Z,101171.53
2022-10-04T06:14:50.108Z,101170.03
2022-10-04T06:20:14.780Z,101171.44
2022-10-04T06:25:24.645Z,101166.38
2022-10-04T06:30:34.403Z,101163.41
2022-10-04T06:36:08.658Z,101160.66
2022-10-04T06:41:40.499Z,101162.66
2022-10-04T06:46:49.067Z,101169.25
2022-10-04T06:52:25.096Z,101161.28
2022-10-04T06:57:47.612Z,101178.19
2022-10-04T07:02:53.155Z,101174.97
2022-10-04T07:08:07.740Z,101177.63
2022-10-04T07:13:41.341Z,101188.59
2022-10-04T07:18:51.654Z,101188.03
2022-10-04T07:23:58.857Z,101182.56
2022-10-04T07:29:23.550Z,101192.47
2022-10-04T07:34:30.774Z,101196.25
2022-10-04T07:39:44.598Z,101196.72
2022-10-04T07:45:11.358Z,101190.75
2022-10-04T07:50:25.606Z,101191.88
2022-10-04T07:55:33.156Z,101193.75
2022-10-04T08:00:48.611Z,101190.06
2022-10-04T08:06:00.143Z,101199.44
2022-10-04T08:11:18.012Z,101204.38
2022-10-04T08:16:35.905Z,101204.31
2022-10-04T08:21:47.033Z,101220.50
2022-10-04T08:26:58.720Z,101208.53
2022-10-04T08:32:13.091Z,101205.94
2022-10-04T08:37:30.204Z,101206.53
2022-10-04T08:43:20.653Z,101207.91
2022-10-04T08:48:46.339Z,101201.84
2022-10-04T08:54:35.539Z,101192.22
2022-10-04T09:00:09.800Z,101202.19
2022-10-04T09:05:52.059Z,101206.25
2022-10-04T09:11:22.078Z,101216.03
2022-10-04T09:16:36.552Z,101207.00
2022-10-04T09:21:51.144Z,101209.75
2022-10-04T09:26:57.993Z,101202.91
2022-10-04T09:32:33.325Z,101202.91
2022-10-04T09:38:01.665Z,101211.94
2022-10-04T09:43:27.694Z,101206.03
2022-10-04T09:48:38.051Z,101204.28
2022-10-04T09:53:54.914Z,101200.53
2022-10-04T09:59:37.522Z,101193.28
2022-10-04T10:04:49.343Z,101195.38
2022-10-04T10:10:19.826Z,101200.41
2022-10-04T10:15:31.265Z,101199.19
2022-10-04T10:20:50.721Z,101189.09
2022-10-04T10:26:32.101Z,101193.03
2022-10-04T10:31:56.615Z,101195.00
2022-10-04T10:37:11.815Z,101198.94
2022-10-04T10:42:50.300Z,101190.84
2022-10-04T10:48:01.757Z,101193.09
2022-10-04T10:53:28.938Z,101189.53
2022-10-04T10:59:01.758Z,101184.56
2022-10-04T11:04:26.649Z,101173.88
2022-10-04T11:09:35.284Z,101182.22
2022-10-04T11:14:56.448Z,101178.09
2022-10-04T11:20:35.355Z,101167.00
2022-10-04T11:25:58.306Z,101165.34
2022-10-04T11:31:41.917Z,101155.84
2022-10-04T11:37:02.976Z,101139.16
2022-10-04T11:42:22.211Z,101141.53
2022-10-04T11:47:43.123Z,101144.06
2022-10-04T11:53:09.311Z,101148.66
2022-10-04T11:58:21.210Z,101144.88
2022-10-04T12:03:48.935Z,101120.59
2022-10-04T12:09:05.540Z,101117.38
2022-10-04T12:14:24.485Z,101110.75
2022-10-04T12:19:41.683Z,101109.75
2022-10-04T12:24:59.685Z,101098.03
2022-10-04T12:30:24.085Z,101092.44
2022-10-04T12:35:34.795Z,101096.41
2022-10-04T12:40:44.646Z,101099.81
2022-10-04T12:46:06.461Z,101108.66
2022-10-04T12:51:23.762Z,101100.28
2022-10-04T12:56:45.926Z,101104.34
2022-10-04T13:01:57.665Z,101087.78
2022-10-04T13:07:19.364Z,101094.22
2022-10-04T13:12:38.961Z,101073.66
2022-10-04T13:17:50.458Z,101068.44
2022-10-04T13:23:00.182Z,101071.22
2022-10-04T13:28:07.091Z,101076.66
2022-10-04T13:33:26.884Z,101064.66
2022-10-04T13:39:11.604Z,101065.50
2022-10-04T13:44:29.736Z,101056.97
2022-10-04T13:49:52.263Z,101055.84
2022-10-04T13:55:30.811Z,101052.56
2022-10-04T14:00:53.956Z,101047.59
2022-10-04T14:06:20.468Z,101030.25
2022-10-04T14:11:44.538Z,101024.31
2022-10-04T14:17:25.354Z,101027.16
2022-10-04T14:23:02.909Z,101013.38
2022-10-04T14:28:33.329Z,101007.38
2022-10-04T14:33:55.107Z,100995.53
2022-10-04T14:39:19.985Z,100991.69
2022-10-04T14:44:54.110Z,100983.16
2022-10-04T14:50:09.493Z,100975.66
2022-10-04T14:55:26.409Z,100970.63
2022-10-04T15:00:35.130Z,100978.16
2022-10-04T15:05:46.147Z,100963.94
2022-10-04T15:10:54.079Z,100971.75
2022-10-04T15:16:11.458Z,100968.91
2022-10-04T15:21:47.575Z,100963.91
2022-10-04T15:27:16.949Z,100960.09
2022-10-04T15:32:29.793Z,100956.00
2022-10-04T15:37:44.279Z,100959.78
2022-10-04T15:43:13.237Z,100961.47
2022-10-04T15:48:33.002Z,100958.00
2022-10-04T15:53:59.705Z,100968.28
2022-10-04T15:59:31.728Z,100967.88
2022-10-04T16:04:50.206Z,100966.91
2022-10-04T16:10:00.980Z,100963.63
2022-10-04T16:15:20.165Z,100966.41
2022-10-04T16:20:40.611Z,100962.19
2022-10-04T16:25:44.093Z,100952.38
2022-10-04T16:31:11.176Z,100945.22
2022-10-04T16:36:17.562Z,100948.94
2022-10-04T16:41:34.981Z,100954.56
2022-10-04T16:46:46.238Z,100948.81
2022-10-04T16:52:17.109Z,100964.09
2022-10-04T16:57:23.312Z,100972.66
2022-10-04T17:02:49.222Z,100981.03
2022-10-04T17:08:17.520Z,100981.91
2022-10-04T17:13:26.752Z,100985.44
2022-10-04T17:18:44.938Z,100988.31
2022-10-04T17:24:03.530Z,100986.53
2022-10-04T17:29:32.561Z,100995.38
2022-10-04T17:34:54.615Z,100996.28
2022-10-04T17:40:10.242Z,100997.78
2022-10-04T17:45:41.667Z,100998.47
2022-10-04T17:51:15.636Z,100988.41
2022-10-04T17:56:30.302Z,100986.66
2022-10-04T18:01:37.344Z,100986.78
2022-10-04T18:06:49.221Z,100982.94
2022-10-04T18:11:56.930Z,100973.59
2022-10-04T18:17:05.649Z,100973.47
2022-10-04T18:22:15.716Z,100968.88
2022-10-04T18:27:22.529Z,100974.50
2022-10-04T18:32:38.128Z,100974.50
2022-10-04T18:37:42.339Z,100970.22
2022-10-04T18:42:52.220Z,100967.28
2022-10-04T18:47:56.114Z,100972.72
2022-10-04T18:53:21.530Z,100981.53
2022-10-04T18:58:51.997Z,100993.38
2022-10-04T19:04:01.051Z,101002.84
2022-10-04T19:09:18.040Z,100987.81
2022-10-04T19:14:30.871Z,101000.63
2022-10-04T19:19:43.142Z,101004.41
2022-10-04T19:25:01.927Z,101003.88
2022-10-04T19:30:16.436Z,101012.59
2022-10-04T19:35:31.378Z,101023.88
2022-10-04T19:40:48.483Z,101027.25
2022-10-04T19:46:13.599Z,101028.38
2022-10-04T19:51:28.302Z,101022.47
2022-10-04T19:56:37.354Z,101034.53
2022-10-04T20:01:40.102Z,101044.75
2022-10-04T20:06:49.790Z,101036.38
2022-10-04T20:11:54.629Z,101041.44
2022-10-04T20:17:04.581Z,101052.41
2022-10-04T20:22:30.337Z,101044.59
2022-10-04T20:28:03.869Z,101038.81
2022-10-04T20:33:06.478Z,101039.28
2022-10-04T20:38:32.140Z,101040.59
2022-10-04T20:43:54.802Z,101044.75
2022-10-04T20:48:57.442Z,101040.44
2022-10-04T20:54:01.483Z,101050.22
2022-10-04T20:59:05.623Z,101052.47
2022-10-04T21:04:15.341Z,101042.63
2022-10-04T21:09:18.279Z,101039.91
2022-10-04T21:14:26.235Z,101052.13
2022-10-04T21:19:46.635Z,101038.00
2022-10-04T21:24:55.361Z,101028.13
2022-10-04T21:30:00.557Z,101040.16
2022-10-04T21:35:03.666Z,101033.56
2022-10-04T21:40:08.250Z,101035.22
2022-10-04T21:45:12.371Z,101022.94
2022-10-04T21:50:15.759Z,101024.84
2022-10-04T21:55:18.356Z,101006.78
2022-10-04T22:00:23.114Z,100984.69
2022-10-04T22:05:28.434Z,100978.94
2022-10-04T22:10:31.109Z,100966.22
2022-10-04T22:15:35.061Z,100970.81
2022-10-04T22:20:38.064Z,100966.16
2022-10-04T22:25:41.298Z,100955.94
2022-10-04T22:30:45.265Z,100950.00
2022-10-04T22:35:47.836Z,100933.63
2022-10-04T22:40:50.371Z,100928.53
2022-10-04T22:45:55.812Z,100927.34
2022-10-04T22:50:58.974Z,100921.88
2022-10-04T22:56:01.562Z,100909.81
2022-10-04T23:01:13.098Z,100903.09
2022-10-04T23:06:16.691Z,100903.69
2022-10-04T23:11:19.318Z,100898.78
2022-10-04T23:16:24.100Z,100907.47
2022-10-04T23:21:29.646Z,100904.91
2022-10-04T23:26:38.112Z,100908.00
2022-10-04T23:31:42.154Z,100900.50
2022-10-04T23:36:45.544Z,100896.66
2022-10-04T23:41:48.382Z,100903.56
2022-10-04T23:46:52.713Z,100893.16
2022-10-04T23:52:00.336Z,100892.75
2022-10-04T23:57:02.967Z,100895.78
